createdAt,value
2019-02-22T00:04:50.667Z,34.23
2019-02-22T00:09:53.351Z,38.13
2019-02-22T00:14:56.023Z,35.10
2019-02-22T00:19:58.721Z,43.03
2019-02-22T00:25:01.424Z,33.13
2019-02-22T00:30:04.330Z,42.33
2019-02-22T00:35:07.356Z,37.17
2019-02-22T00:40:10.082Z,35.40
2019-02-22T00:45:12.785Z,35.63
2019-02-22T00:50:15.483Z,37.03
2019-02-22T00:55:18.206Z,35.47
2019-02-22T01:00:20.877Z,30.80
2019-02-22T01:05:23.575Z,30.60
2019-02-22T01:10:31.100Z,26.37
2019-02-22T01:15:30.852Z,31.67
2019-02-22T01:20:33.553Z,31.80
2019-02-22T01:25:36.267Z,30.40
2019-02-22T01:30:38.927Z,29.33
2019-02-22T01:35:41.620Z,32.97
2019-02-22T01:40:44.349Z,35.67
2019-02-22T01:45:47.087Z,25.30
2019-02-22T01:50:49.781Z,32.70
2019-02-22T01:55:52.471Z,31.97
2019-02-22T02:00:55.162Z,31.37
2019-02-22T02:05:57.833Z,33.83
2019-02-22T02:11:00.536Z,34.13
2019-02-22T02:16:03.232Z,28.47
2019-02-22T02:21:05.922Z,30.23
2019-02-22T02:26:08.602Z,34.60
2019-02-22T02:31:11.266Z,34.57
2019-02-22T02:36:13.946Z,43.63
2019-02-22T02:41:16.615Z,31.10
2019-02-22T02:46:19.299Z,36.10
2019-02-22T02:51:21.993Z,37.30
2019-02-22T02:56:24.672Z,33.20
2019-02-22T03:01:27.351Z,31.60
2019-02-22T03:06:52.238Z,36.13
2019-02-22T03:11:54.905Z,35.03
2019-02-22T03:16:57.608Z,38.50
2019-02-22T03:22:00.306Z,36.20
2019-02-22T03:27:03.028Z,42.00
2019-02-22T03:32:05.746Z,47.03
2019-02-22T03:37:08.432Z,39.40
2019-02-22T03:42:11.114Z,38.73
2019-02-22T03:47:13.805Z,35.43
2019-02-22T03:52:35.477Z,40.00
2019-02-22T03:57:38.205Z,40.83
2019-02-22T04:02:40.919Z,49.23
2019-02-22T04:07:43.593Z,36.50
2019-02-22T04:12:46.314Z,51.13
2019-02-22T04:17:49.033Z,43.73
2019-02-22T04:22:52.152Z,44.90
2019-02-22T04:27:54.894Z,49.70
2019-02-22T04:32:57.585Z,45.80
2019-02-22T04:38:00.291Z,45.93
2019-02-22T04:43:03.148Z,43.77
2019-02-22T04:48:05.880Z,46.53
2019-02-22T04:53:08.638Z,46.37
2019-02-22T04:58:14.303Z,45.83
2019-02-22T05:03:19.238Z,42.50
2019-02-22T05:08:23.359Z,46.53
2019-02-22T05:13:26.208Z,46.87
2019-02-22T05:18:28.992Z,39.83
2019-02-22T05:23:33.433Z,54.53
2019-02-22T05:28:37.180Z,49.80
2019-02-22T05:33:41.172Z,53.50
2019-02-22T05:38:45.564Z,56.00
2019-02-22T05:43:50.149Z,51.07
2019-02-22T05:48:54.651Z,54.13
2019-02-22T05:53:58.469Z,59.30
2019-02-22T05:59:02.438Z,48.97
2019-02-22T06:04:06.861Z,60.13
2019-02-22T06:09:11.196Z,58.37
2019-02-22T06:14:15.522Z,60.43
2019-02-22T06:19:19.405Z,53.80
2019-02-22T06:24:23.490Z,55.20
2019-02-22T06:29:28.223Z,61.57
2019-02-22T06:34:32.344Z,67.73
2019-02-22T06:39:35.866Z,59.40
2019-02-22T06:44:39.888Z,58.33
2019-02-22T06:49:44.576Z,56.03
2019-02-22T06:54:48.859Z,56.37
2019-02-22T06:59:54.431Z,65.83
2019-02-22T07:04:58.606Z,59.90
2019-02-22T07:10:02.908Z,62.27
2019-02-22T07:15:06.952Z,60.00
2019-02-22T07:20:11.320Z,65.17
2019-02-22T07:25:14.803Z,68.00
2019-02-22T07:30:18.459Z,66.87
2019-02-22T07:35:22.070Z,76.03
2019-02-22T07:40:26.188Z,63.47
2019-02-22T07:45:29.974Z,69.80
2019-02-22T07:50:33.842Z,47.80
2019-02-22T07:55:37.559Z,54.93
2019-02-22T08:00:41.204Z,58.30
2019-02-22T08:05:44.660Z,49.93
2019-02-22T08:10:48.339Z,53.03
2019-02-22T08:15:51.659Z,55.50
2019-02-22T08:20:55.547Z,58.37
2019-02-22T08:25:58.943Z,57.00
2019-02-22T08:31:02.352Z,57.87
2019-02-22T08:36:07.635Z,75.17
2019-02-22T08:41:11.222Z,72.53
2019-02-22T08:46:15.518Z,68.80
2019-02-22T08:51:19.254Z,51.17
2019-02-22T08:56:23.150Z,57.23
2019-02-22T09:01:27.209Z,50.83
2019-02-22T09:06:30.794Z,57.97
2019-02-22T09:11:34.891Z,52.37
2019-02-22T09:16:38.879Z,57.43
2019-02-22T09:21:42.394Z,40.40
2019-02-22T09:26:46.101Z,40.90
2019-02-22T09:31:49.851Z,37.73
2019-02-22T09:36:54.130Z,32.47
2019-02-22T09:41:58.617Z,41.27
2019-02-22T09:47:02.091Z,34.83
2019-02-22T09:52:06.094Z,35.40
2019-02-22T09:57:09.801Z,36.00
2019-02-22T10:02:13.669Z,40.73
2019-02-22T10:07:17.139Z,29.80
2019-02-22T10:12:21.504Z,33.50
2019-02-22T10:17:25.430Z,25.93
2019-02-22T10:22:29.532Z,23.97
2019-02-22T10:27:32.902Z,29.30
2019-02-22T10:32:36.720Z,33.93
2019-02-22T10:37:40.044Z,32.33
2019-02-22T10:42:42.803Z,30.13
2019-02-22T10:47:45.695Z,25.90
2019-02-22T10:52:49.624Z,26.53
2019-02-22T10:57:53.914Z,24.33
2019-02-22T11:02:57.242Z,24.37
2019-02-22T11:08:01.234Z,22.93
2019-02-22T11:13:05.358Z,17.50
2019-02-22T11:18:09.553Z,19.13
2019-02-22T11:23:12.996Z,12.13
2019-02-22T11:28:18.675Z,11.60
2019-02-22T11:33:22.092Z,10.20
2019-02-22T11:38:26.175Z,13.00
2019-02-22T11:43:30.176Z,7.93
2019-02-22T11:48:34.367Z,10.77
2019-02-22T11:53:38.190Z,12.03
2019-02-22T12:04:15.891Z,10.50
2019-02-22T12:09:19.649Z,5.63
2019-02-22T12:14:27.066Z,7.20
2019-02-22T12:19:31.311Z,7.07
2019-02-22T12:24:35.104Z,9.03
2019-02-22T12:29:38.750Z,6.50
2019-02-22T12:34:42.695Z,7.07
2019-02-22T12:39:45.760Z,3.83
2019-02-22T12:44:49.863Z,5.27
2019-02-22T12:49:53.610Z,4.13
2019-02-22T12:55:00.977Z,4.17
2019-02-22T13:00:06.943Z,5.27
2019-02-22T13:05:13.936Z,4.20
2019-02-22T13:10:17.632Z,7.00
2019-02-22T13:15:20.854Z,4.93
2019-02-22T13:20:24.520Z,10.30
2019-02-22T13:25:28.296Z,7.07
2019-02-22T13:30:32.061Z,8.77
2019-02-22T13:35:35.922Z,11.03
2019-02-22T13:40:40.212Z,13.43
2019-02-22T13:45:43.950Z,16.00
2019-02-22T13:50:48.058Z,12.57
2019-02-22T13:55:51.861Z,11.20
2019-02-22T14:00:55.476Z,12.30
2019-02-22T14:05:59.435Z,9.30
2019-02-22T14:11:24.276Z,12.37
2019-02-22T14:16:28.129Z,8.53
2019-02-22T14:21:32.078Z,11.80
2019-02-22T14:26:36.372Z,19.70
2019-02-22T14:36:56.863Z,14.23
2019-02-22T14:42:00.314Z,9.33
2019-02-22T14:47:04.625Z,14.33
2019-02-22T14:52:08.410Z,30.00
2019-02-22T14:57:13.214Z,15.00
2019-02-22T15:02:17.014Z,7.53
2019-02-22T15:07:19.789Z,7.90
2019-02-22T15:12:22.480Z,8.73
2019-02-22T15:17:28.578Z,9.40
2019-02-22T15:22:37.539Z,9.83
2019-02-22T15:27:48.519Z,11.23
2019-02-22T15:33:05.658Z,9.57
2019-02-22T15:38:28.869Z,12.10
2019-02-22T15:43:39.247Z,17.33
2019-02-22T15:48:42.572Z,12.40
2019-02-22T15:53:45.351Z,18.30
2019-02-22T15:59:05.024Z,15.87
2019-02-22T16:04:52.632Z,19.67
2019-02-22T16:09:56.298Z,16.40
2019-02-22T16:14:59.129Z,17.77
2019-02-22T16:20:08.578Z,10.83
2019-02-22T16:25:19.501Z,8.90
2019-02-22T16:30:25.915Z,15.13
2019-02-22T16:35:30.134Z,20.77
2019-02-22T16:40:32.914Z,25.33
2019-02-22T16:45:35.625Z,30.90
2019-02-22T16:50:38.504Z,22.73
2019-02-22T16:55:41.227Z,21.83
2019-02-22T17:00:43.927Z,18.10
2019-02-22T17:05:48.580Z,24.33
2019-02-22T17:10:54.645Z,20.33
2019-02-22T17:16:09.043Z,27.47
2019-02-22T17:21:11.886Z,19.43
2019-02-22T17:26:15.711Z,17.10
2019-02-22T17:31:18.538Z,17.87
2019-02-22T17:36:26.763Z,16.20
2019-02-22T17:41:25.852Z,19.40
2019-02-22T17:46:28.758Z,16.40
2019-02-22T17:51:40.889Z,21.87
2019-02-22T17:56:54.675Z,18.80
2019-02-22T18:02:10.729Z,18.20
2019-02-22T18:07:18.430Z,15.97
2019-02-22T18:12:27.655Z,14.73
2019-02-22T18:17:37.879Z,17.40
2019-02-22T18:22:41.435Z,22.30
2019-02-22T18:27:47.483Z,15.27
2019-02-22T18:32:50.292Z,18.17
2019-02-22T18:37:53.013Z,18.50
2019-02-22T18:43:07.886Z,15.30
2019-02-22T18:48:11.629Z,20.53
2019-02-22T18:53:24.070Z,15.47
2019-02-22T18:58:32.017Z,16.13
2019-02-22T19:03:38.292Z,17.30
2019-02-22T19:08:54.599Z,17.33
2019-02-22T19:14:10.612Z,18.67
2019-02-22T19:19:14.553Z,18.40
2019-02-22T19:24:17.508Z,29.50
2019-02-22T19:29:20.220Z,24.87
2019-02-22T19:34:22.946Z,34.40
2019-02-22T19:39:25.729Z,37.80
2019-02-22T19:44:28.448Z,40.27
2019-02-22T19:49:31.526Z,48.10
2019-02-22T19:54:34.327Z,42.20
2019-02-22T19:59:37.053Z,39.53
2019-02-22T20:04:39.770Z,45.10
2019-02-22T20:09:46.044Z,49.60
2019-02-22T20:14:57.717Z,52.53
2019-02-22T20:20:00.605Z,49.43
2019-02-22T20:25:04.540Z,47.53
2019-02-22T20:30:14.657Z,44.50
2019-02-22T20:35:22.078Z,45.50
2019-02-22T20:40:24.787Z,45.37
2019-02-22T20:45:27.493Z,43.23
2019-02-22T20:50:30.595Z,48.30
2019-02-22T20:55:33.297Z,47.67
2019-02-22T21:00:35.996Z,50.73
2019-02-22T21:05:38.680Z,48.67
2019-02-22T21:10:41.387Z,64.07
2019-02-22T21:15:44.320Z,46.33
2019-02-22T21:20:47.101Z,47.13
2019-02-22T21:25:49.838Z,48.00
2019-02-22T21:30:52.531Z,41.53
2019-02-22T21:35:55.247Z,37.40
2019-02-22T21:40:57.943Z,37.53
2019-02-22T21:46:00.650Z,31.10
2019-02-22T21:51:03.343Z,34.53
2019-02-22T21:56:06.062Z,27.50
2019-02-22T22:01:08.736Z,32.77
2019-02-22T22:06:11.412Z,28.87
2019-02-22T22:11:14.209Z,23.67
2019-02-22T22:16:16.912Z,25.10
2019-02-22T22:21:19.620Z,19.97
2019-02-22T22:26:22.357Z,21.07
2019-02-22T22:31:25.055Z,22.63
2019-02-22T22:36:27.724Z,24.57
2019-02-22T22:41:30.517Z,21.63
2019-02-22T22:46:36.787Z,23.20
2019-02-22T22:51:37.859Z,22.10
2019-02-22T22:56:40.560Z,22.23
2019-02-22T23:01:43.254Z,24.80
2019-02-22T23:06:45.962Z,21.70
2019-02-22T23:11:48.634Z,21.27
2019-02-22T23:16:51.441Z,22.40
2019-02-22T23:21:54.320Z,24.10
2019-02-22T23:26:57.024Z,21.23
2019-02-22T23:31:59.724Z,20.57
2019-02-22T23:37:02.428Z,22.13
2019-02-22T23:42:05.117Z,20.27
2019-02-22T23:47:19.311Z,23.40
2019-02-22T23:52:22.446Z,19.30
2019-02-22T23:57:25.140Z,22.07
